sensor_id;sensor_type;location;lat;lon;timestamp;pressure;altitude;pressure_sealevel;temperature;humidity
5574;BME280;2563;52.242;7.956;2023-02-02T00:01:49;100704.44;;;4.05;100.00
5574;BME280;2563;52.242;7.956;2023-02-02T00:04:18;100699.31;;;3.99;100.00
5574;BME280;2563;52.242;7.956;2023-02-02T00:06:44;100700.16;;;3.95;100.00
5574;BME280;2563;52.242;7.956;2023-02-02T00:09:12;100696.75;;;3.93;100.00
5574;BME280;2563;52.242;7.956;2023-02-02T00:11:38;100694.19;;;3.96;100.00
5574;BME280;2563;52.242;7.956;2023-02-02T00:14:03;100706.13;;;4.03;100.00
5574;BME280;2563;52.242;7.956;2023-02-02T00:18:56;100693.38;;;4.00;100.00
5574;BME280;2563;52.242;7.956;2023-02-02T00:21:22;100701.03;;;4.07;100.00
5574;BME280;2563;52.242;7.956;2023-02-02T00:23:48;100694.22;;;3.98;100.00
5574;BME280;2563;52.242;7.956;2023-02-02T00:26:14;100686.59;;;4.02;100.00
5574;BME280;2563;52.242;7.956;2023-02-02T00:28:40;100684.88;;;3.95;100.00
5574;BME280;2563;52.242;7.956;2023-02-02T00:31:05;100691.66;;;3.99;100.00
5574;BME280;2563;52.242;7.956;2023-02-02T00:33:31;100686.50;;;3.90;100.00
5574;BME280;2563;52.242;7.956;2023-02-02T00:35:56;100685.75;;;4.05;100.00
5574;BME280;2563;52.242;7.956;2023-02-02T00:38:21;100675.56;;;4.05;100.00
5574;BME280;2563;52.242;7.956;2023-02-02T00:40:47;100679.81;;;4.09;100.00
5574;BME280;2563;52.242;7.956;2023-02-02T00:43:12;100680.66;;;4.03;100.00
5574;BME280;2563;52.242;7.956;2023-02-02T00:45:38;100679.78;;;3.98;100.00
5574;BME280;2563;52.242;7.956;2023-02-02T00:48:03;100677.25;;;4.00;100.00
5574;BME280;2563;52.242;7.956;2023-02-02T00:50:29;100681.47;;;3.96;100.00
5574;BME280;2563;52.242;7.956;2023-02-02T00:52:55;100685.69;;;3.91;100.00
5574;BME280;2563;52.242;7.956;2023-02-02T00:55:22;100676.38;;;3.96;100.00
5574;BME280;2563;52.242;7.956;2023-02-02T00:57:47;100688.28;;;4.03;100.00
5574;BME280;2563;52.242;7.956;2023-02-02T01:00:16;100689.97;;;4.01;100.00
5574;BME280;2563;52.242;7.956;2023-02-02T01:02:42;100689.97;;;3.95;100.00
5574;BME280;2563;52.242;7.956;2023-02-02T01:05:10;100694.19;;;3.95;100.00
5574;BME280;2563;52.242;7.956;2023-02-02T01:07:35;100697.59;;;3.97;100.00
5574;BME280;2563;52.242;7.956;2023-02-02T01:10:01;100695.06;;;4.01;100.00
5574;BME280;2563;52.242;7.956;2023-02-02T01:12:26;100699.25;;;3.87;100.00
5574;BME280;2563;52.242;7.956;2023-02-02T01:14:51;100700.97;;;3.94;100.00
5574;BME280;2563;52.242;7.956;2023-02-02T01:17:17;100706.97;;;4.02;100.00
5574;BME280;2563;52.242;7.956;2023-02-02T01:19:43;100699.31;;;4.04;100.00
5574;BME280;2563;52.242;7.956;2023-02-02T01:22:08;100701.84;;;3.98;100.00
5574;BME280;2563;52.242;7.956;2023-02-02T01:24:34;100701.84;;;3.93;100.00
5574;BME280;2563;52.242;7.956;2023-02-02T01:26:59;100703.50;;;3.90;100.00
5574;BME280;2563;52.242;7.956;2023-02-02T01:29:25;100699.22;;;3.84;100.00
5574;BME280;2563;52.242;7.956;2023-02-02T01:31:51;100702.63;;;3.86;100.00
5574;BME280;2563;52.242;7.956;2023-02-02T01:34:16;100700.94;;;3.90;100.00
5574;BME280;2563;52.242;7.956;2023-02-02T01:36:42;100709.41;;;3.87;100.00
5574;BME280;2563;52.242;7.956;2023-02-02T01:39:07;100711.94;;;3.81;100.00
5574;BME280;2563;52.242;7.956;2023-02-02T01:41:33;100706.88;;;3.87;100.00
5574;BME280;2563;52.242;7.956;2023-02-02T01:44:04;100709.50;;;3.99;100.00
5574;BME280;2563;52.242;7.956;2023-02-02T01:46:34;100709.47;;;3.96;100.00
5574;BME280;2563;52.242;7.956;2023-02-02T01:49:15;100709.47;;;3.93;100.00
5574;BME280;2563;52.242;7.956;2023-02-02T01:51:52;100705.31;;;4.08;100.00
5574;BME280;2563;52.242;7.956;2023-02-02T01:54:29;100701.06;;;4.11;100.00
5574;BME280;2563;52.242;7.956;2023-02-02T01:57:01;100707.03;;;4.16;100.00
5574;BME280;2563;52.242;7.956;2023-02-02T01:59:28;100704.50;;;4.19;100.00
5574;BME280;2563;52.242;7.956;2023-02-02T02:01:55;100709.59;;;4.15;100.00
5574;BME280;2563;52.242;7.956;2023-02-02T02:04:21;100707.03;;;4.15;100.00
5574;BME280;2563;52.242;7.956;2023-02-02T02:06:48;100707.91;;;4.23;100.00
5574;BME280;2563;52.242;7.956;2023-02-02T02:09:16;100700.25;;;4.26;100.00
5574;BME280;2563;52.242;7.956;2023-02-02T02:11:41;100697.78;;;4.34;100.00
5574;BME280;2563;52.242;7.956;2023-02-02T02:14:08;100698.59;;;4.30;100.00
5574;BME280;2563;52.242;7.956;2023-02-02T02:22:04;100694.34;;;4.33;100.00
5574;BME280;2563;52.242;7.956;2023-02-02T02:33:48;100691.81;;;4.33;100.00
5574;BME280;2563;52.242;7.956;2023-02-02T02:36:42;100707.09;;;4.27;100.00
5574;BME280;2563;52.242;7.956;2023-02-02T02:41:59;100703.69;;;4.28;100.00
5574;BME280;2563;52.242;7.956;2023-02-02T02:44:27;100702.00;;;4.27;100.00
5574;BME280;2563;52.242;7.956;2023-02-02T02:46:55;100705.41;;;4.32;100.00
5574;BME280;2563;52.242;7.956;2023-02-02T02:49:21;100699.44;;;4.30;100.00
5574;BME280;2563;52.242;7.956;2023-02-02T02:51:54;100700.25;;;4.26;100.00
5574;BME280;2563;52.242;7.956;2023-02-02T02:54:24;100703.66;;;4.25;100.00
5574;BME280;2563;52.242;7.956;2023-02-02T03:05:42;100696.91;;;4.30;100.00
5574;BME280;2563;52.242;7.956;2023-02-02T03:08:27;100694.31;;;4.21;100.00
5574;BME280;2563;52.242;7.956;2023-02-02T03:10:56;100701.09;;;4.19;100.00
5574;BME280;2563;52.242;7.956;2023-02-02T03:13:23;100691.78;;;4.24;100.00
5574;BME280;2563;52.242;7.956;2023-02-02T03:15:50;100697.75;;;4.35;100.00
5574;BME280;2563;52.242;7.956;2023-02-02T03:18:16;100698.63;;;4.37;100.00
5574;BME280;2563;52.242;7.956;2023-02-02T03:20:44;100689.25;;;4.33;100.00
5574;BME280;2563;52.242;7.956;2023-02-02T03:23:10;100686.78;;;4.45;100.00
5574;BME280;2563;52.242;7.956;2023-02-02T03:25:36;100685.09;;;4.54;100.00
5574;BME280;2563;52.242;7.956;2023-02-02T03:28:01;100685.13;;;4.60;100.00
5574;BME280;2563;52.242;7.956;2023-02-02T03:30:28;100674.03;;;4.56;100.00
5574;BME280;2563;52.242;7.956;2023-02-02T03:32:54;100677.44;;;4.58;100.00
5574;BME280;2563;52.242;7.956;2023-02-02T03:35:19;100664.72;;;4.69;100.00
5574;BME280;2563;52.242;7.956;2023-02-02T03:37:45;100668.13;;;4.71;100.00
5574;BME280;2563;52.242;7.956;2023-02-02T03:40:12;100675.78;;;4.69;100.00
5574;BME280;2563;52.242;7.956;2023-02-02T03:42:38;100676.63;;;4.76;100.00
5574;BME280;2563;52.242;7.956;2023-02-02T03:45:04;100670.69;;;4.83;100.00
5574;BME280;2563;52.242;7.956;2023-02-02T03:47:29;100669.84;;;4.81;100.00
5574;BME280;2563;52.242;7.956;2023-02-02T03:49:55;100675.78;;;4.83;100.00
5574;BME280;2563;52.242;7.956;2023-02-02T03:52:21;100671.53;;;4.85;100.00
5574;BME280;2563;52.242;7.956;2023-02-02T03:54:47;100666.47;;;4.92;100.00
5574;BME280;2563;52.242;7.956;2023-02-02T03:57:12;100654.56;;;4.97;100.00
5574;BME280;2563;52.242;7.956;2023-02-02T03:59:37;100650.31;;;4.99;100.00
5574;BME280;2563;52.242;7.956;2023-02-02T04:02:03;100650.31;;;5.02;100.00
5574;BME280;2563;52.242;7.956;2023-02-02T04:04:28;100641.81;;;5.01;100.00
5574;BME280;2563;52.242;7.956;2023-02-02T04:06:54;100644.38;;;5.03;100.00
5574;BME280;2563;52.242;7.956;2023-02-02T04:09:19;100644.34;;;5.09;100.00
5574;BME280;2563;52.242;7.956;2023-02-02T04:11:44;100636.69;;;5.12;100.00
5574;BME280;2563;52.242;7.956;2023-02-02T04:14:10;100640.94;;;5.13;100.00
5574;BME280;2563;52.242;7.956;2023-02-02T04:16:35;100631.56;;;5.12;100.00
5574;BME280;2563;52.242;7.956;2023-02-02T04:19:03;100632.44;;;5.14;100.00
5574;BME280;2563;52.242;7.956;2023-02-02T04:21:28;100644.34;;;5.21;100.00
5574;BME280;2563;52.242;7.956;2023-02-02T04:23:55;100631.59;;;5.20;100.00
5574;BME280;2563;52.242;7.956;2023-02-02T04:26:20;100631.59;;;5.20;100.00
5574;BME280;2563;52.242;7.956;2023-02-02T04:28:46;100638.41;;;5.22;100.00
5574;BME280;2563;52.242;7.956;2023-02-02T04:31:11;100649.44;;;5.18;100.00
5574;BME280;2563;52.242;7.956;2023-02-02T04:33:36;100665.63;;;5.13;100.00
5574;BME280;2563;52.242;7.956;2023-02-02T04:36:02;100670.69;;;5.09;100.00
5574;BME280;2563;52.242;7.956;2023-02-02T04:38:28;100677.53;;;5.06;100.00
5574;BME280;2563;52.242;7.956;2023-02-02T04:40:54;100676.66;;;5.04;100.00
5574;BME280;2563;52.242;7.956;2023-02-02T04:43:19;100684.31;;;5.02;100.00
5574;BME280;2563;52.242;7.956;2023-02-02T04:45:44;100686.88;;;5.01;100.00
5574;BME280;2563;52.242;7.956;2023-02-02T04:48:10;100699.63;;;4.96;100.00
5574;BME280;2563;52.242;7.956;2023-02-02T04:50:36;100704.72;;;4.92;100.00
5574;BME280;2563;52.242;7.956;2023-02-02T04:53:02;100709.81;;;4.99;100.00
5574;BME280;2563;52.242;7.956;2023-02-02T04:55:28;100714.91;;;4.95;100.00
5574;BME280;2563;52.242;7.956;2023-02-02T04:57:53;100708.09;;;4.90;100.00
5574;BME280;2563;52.242;7.956;2023-02-02T05:00:19;100716.59;;;4.88;100.00
5574;BME280;2563;52.242;7.956;2023-02-02T05:02:44;100718.31;;;4.87;100.00
5574;BME280;2563;52.242;7.956;2023-02-02T05:05:12;100719.16;;;4.86;100.00
5574;BME280;2563;52.242;7.956;2023-02-02T05:07:38;100719.16;;;4.86;100.00
5574;BME280;2563;52.242;7.956;2023-02-02T05:10:07;100729.34;;;4.83;100.00
5574;BME280;2563;52.242;7.956;2023-02-02T05:12:33;100732.75;;;4.79;100.00
5574;BME280;2563;52.242;7.956;2023-02-02T05:14:58;100727.63;;;4.76;100.00
5574;BME280;2563;52.242;7.956;2023-02-02T05:17:27;100729.34;;;4.74;100.00
5574;BME280;2563;52.242;7.956;2023-02-02T05:19:53;100729.31;;;4.71;100.00
5574;BME280;2563;52.242;7.956;2023-02-02T05:22:18;100736.97;;;4.68;100.00
5574;BME280;2563;52.242;7.956;2023-02-02T05:24:43;100743.75;;;4.67;100.00
5574;BME280;2563;52.242;7.956;2023-02-02T05:27:09;100742.88;;;4.64;100.00
5574;BME280;2563;52.242;7.956;2023-02-02T05:29:34;100741.19;;;4.63;100.00
5574;BME280;2563;52.242;7.956;2023-02-02T05:31:59;100749.66;;;4.62;100.00
5574;BME280;2563;52.242;7.956;2023-02-02T05:34:25;100758.19;;;4.61;100.00
5574;BME280;2563;52.242;7.956;2023-02-02T05:36:50;100759.03;;;4.60;100.00
5574;BME280;2563;52.242;7.956;2023-02-02T05:39:16;100759.88;;;4.59;100.00
5574;BME280;2563;52.242;7.956;2023-02-02T05:41:42;100759.88;;;4.56;100.00
5574;BME280;2563;52.242;7.956;2023-02-02T05:44:11;100766.66;;;4.54;100.00
5574;BME280;2563;52.242;7.956;2023-02-02T05:46:36;100764.97;;;4.53;100.00
5574;BME280;2563;52.242;7.956;2023-02-02T05:49:02;100765.81;;;4.53;100.00
5574;BME280;2563;52.242;7.956;2023-02-02T05:51:37;100767.50;;;4.51;100.00
5574;BME280;2563;52.242;7.956;2023-02-02T05:54:04;100770.03;;;4.50;100.00
5574;BME280;2563;52.242;7.956;2023-02-02T05:56:30;100775.13;;;4.46;100.00
5574;BME280;2563;52.242;7.956;2023-02-02T05:58:55;100763.22;;;4.45;100.00
5574;BME280;2563;52.242;7.956;2023-02-02T06:01:21;100762.34;;;4.45;100.00
5574;BME280;2563;52.242;7.956;2023-02-02T06:03:46;100763.19;;;4.42;100.00
5574;BME280;2563;52.242;7.956;2023-02-02T06:06:12;100761.50;;;4.41;100.00
5574;BME280;2563;52.242;7.956;2023-02-02T06:08:37;100768.28;;;4.39;100.00
5574;BME280;2563;52.242;7.956;2023-02-02T06:11:10;100764.03;;;4.38;100.00
5574;BME280;2563;52.242;7.956;2023-02-02T06:13:35;100769.97;;;4.37;100.00
5574;BME280;2563;52.242;7.956;2023-02-02T06:16:01;100768.25;;;4.33;100.00
5574;BME280;2563;52.242;7.956;2023-02-02T06:18:26;100767.41;;;4.34;100.00
5574;BME280;2563;52.242;7.956;2023-02-02T06:20:58;100763.16;;;4.33;100.00
5574;BME280;2563;52.242;7.956;2023-02-02T06:23:24;100764.88;;;4.31;100.00
5574;BME280;2563;52.242;7.956;2023-02-02T06:25:50;100764.88;;;4.31;100.00
5574;BME280;2563;52.242;7.956;2023-02-02T06:28:15;100763.13;;;4.30;100.00
5574;BME280;2563;52.242;7.956;2023-02-02T06:30:41;100762.28;;;4.26;100.00
5574;BME280;2563;52.242;7.956;2023-02-02T06:33:06;100779.25;;;4.24;100.00
5574;BME280;2563;52.242;7.956;2023-02-02T06:35:32;100771.59;;;4.23;100.00
5574;BME280;2563;52.242;7.956;2023-02-02T06:37:58;100775.81;;;4.21;100.00
5574;BME280;2563;52.242;7.956;2023-02-02T06:40:24;100778.38;;;4.19;100.00
5574;BME280;2563;52.242;7.956;2023-02-02T06:43:03;100769.88;;;4.19;100.00
5574;BME280;2563;52.242;7.956;2023-02-02T06:45:29;100770.69;;;4.13;100.00
5574;BME280;2563;52.242;7.956;2023-02-02T06:47:58;100763.88;;;4.11;100.00
5574;BME280;2563;52.242;7.956;2023-02-02T06:50:25;100781.66;;;4.01;100.00
5574;BME280;2563;52.242;7.956;2023-02-02T06:52:51;100776.56;;;3.98;100.00
5574;BME280;2563;52.242;7.956;2023-02-02T06:55:17;100776.56;;;3.98;100.00
5574;BME280;2563;52.242;7.956;2023-02-02T06:57:43;100786.72;;;3.97;100.00
5574;BME280;2563;52.242;7.956;2023-02-02T07:00:09;100778.25;;;3.96;100.00
5574;BME280;2563;52.242;7.956;2023-02-02T07:02:36;100771.44;;;3.95;100.00
5574;BME280;2563;52.242;7.956;2023-02-02T07:05:02;100783.34;;;3.96;100.00
5574;BME280;2563;52.242;7.956;2023-02-02T07:07:32;100779.91;;;3.94;100.00
5574;BME280;2563;52.242;7.956;2023-02-02T07:09:58;100778.22;;;3.93;100.00
5574;BME280;2563;52.242;7.956;2023-02-02T07:12:23;100774.81;;;3.94;100.00
5574;BME280;2563;52.242;7.956;2023-02-02T07:14:50;100785.00;;;3.91;100.00
5574;BME280;2563;52.242;7.956;2023-02-02T07:17:16;100783.28;;;3.89;100.00
5574;BME280;2563;52.242;7.956;2023-02-02T07:19:41;100791.78;;;3.89;100.00
5574;BME280;2563;52.242;7.956;2023-02-02T07:22:06;100795.19;;;3.91;100.00
5574;BME280;2563;52.242;7.956;2023-02-02T07:24:32;100788.38;;;3.90;100.00
5574;BME280;2563;52.242;7.956;2023-02-02T07:26:57;100783.25;;;3.87;100.00
5574;BME280;2563;52.242;7.956;2023-02-02T07:29:23;100795.16;;;3.88;100.00
5574;BME280;2563;52.242;7.956;2023-02-02T07:31:48;100793.44;;;3.87;100.00
5574;BME280;2563;52.242;7.956;2023-02-02T07:34:13;100799.41;;;3.86;100.00
5574;BME280;2563;52.242;7.956;2023-02-02T07:36:39;100800.22;;;3.85;100.00
5574;BME280;2563;52.242;7.956;2023-02-02T07:39:04;100793.44;;;3.84;100.00
5574;BME280;2563;52.242;7.956;2023-02-02T07:41:33;100800.22;;;3.85;100.00
5574;BME280;2563;52.242;7.956;2023-02-02T07:43:59;100804.50;;;3.86;100.00
5574;BME280;2563;52.242;7.956;2023-02-02T07:46:24;100801.94;;;3.86;100.00
5574;BME280;2563;52.242;7.956;2023-02-02T07:48:53;100794.31;;;3.86;100.00
5574;BME280;2563;52.242;7.956;2023-02-02T07:51:23;100800.25;;;3.88;100.00
5574;BME280;2563;52.242;7.956;2023-02-02T07:53:50;100796.00;;;3.90;100.00
5574;BME280;2563;52.242;7.956;2023-02-02T07:56:19;100789.22;;;3.89;100.00
5574;BME280;2563;52.242;7.956;2023-02-02T07:58:45;100796.06;;;3.93;100.00
5574;BME280;2563;52.242;7.956;2023-02-02T08:01:13;100786.72;;;3.95;100.00
5574;BME280;2563;52.242;7.956;2023-02-02T08:03:39;100785.00;;;3.94;100.00
5574;BME280;2563;52.242;7.956;2023-02-02T08:06:14;100769.75;;;3.97;100.00
5574;BME280;2563;52.242;7.956;2023-02-02T08:08:42;100776.56;;;3.98;100.00
5574;BME280;2563;52.242;7.956;2023-02-02T08:11:09;100775.72;;;3.98;100.00
5574;BME280;2563;52.242;7.956;2023-02-02T08:13:35;100774.00;;;3.98;100.00
5574;BME280;2563;52.242;7.956;2023-02-02T08:16:01;100774.03;;;4.00;100.00
5574;BME280;2563;52.242;7.956;2023-02-02T08:18:26;100764.69;;;4.00;100.00
5574;BME280;2563;52.242;7.956;2023-02-02T08:20:51;100768.94;;;4.01;100.00
5574;BME280;2563;52.242;7.956;2023-02-02T08:23:17;100763.00;;;4.02;100.00
5574;BME280;2563;52.242;7.956;2023-02-02T08:25:51;100755.34;;;4.04;100.00
5574;BME280;2563;52.242;7.956;2023-02-02T08:28:17;100752.84;;;4.09;100.00
5574;BME280;2563;52.242;7.956;2023-02-02T08:30:44;100746.91;;;4.08;100.00
5574;BME280;2563;52.242;7.956;2023-02-02T08:33:09;100752.84;;;4.09;100.00
5574;BME280;2563;52.242;7.956;2023-02-02T08:35:39;100754.56;;;4.10;100.00
5574;BME280;2563;52.242;7.956;2023-02-02T08:38:05;100749.47;;;4.13;100.00
5574;BME280;2563;52.242;7.956;2023-02-02T08:40:31;100743.53;;;4.14;100.00
5574;BME280;2563;52.242;7.956;2023-02-02T08:42:57;100752.03;;;4.16;100.00
5574;BME280;2563;52.242;7.956;2023-02-02T08:45:22;100748.66;;;4.18;100.00
5574;BME280;2563;52.242;7.956;2023-02-02T08:47:47;100746.13;;;4.20;100.00
5574;BME280;2563;52.242;7.956;2023-02-02T08:50:13;100749.50;;;4.20;100.00
5574;BME280;2563;52.242;7.956;2023-02-02T08:52:38;100747.81;;;4.21;100.00
5574;BME280;2563;52.242;7.956;2023-02-02T08:55:04;100752.06;;;4.23;100.00
5574;BME280;2563;52.242;7.956;2023-02-02T08:57:29;100747.81;;;4.25;100.00
5574;BME280;2563;52.242;7.956;2023-02-02T08:59:57;100757.22;;;4.31;100.00
5574;BME280;2563;52.242;7.956;2023-02-02T09:02:22;100751.28;;;4.35;100.00
5574;BME280;2563;52.242;7.956;2023-02-02T09:04:47;100755.53;;;4.39;100.00
5574;BME280;2563;52.242;7.956;2023-02-02T09:07:13;100756.41;;;4.41;100.00
5574;BME280;2563;52.242;7.956;2023-02-02T09:09:38;100754.69;;;4.40;100.00
5574;BME280;2563;52.242;7.956;2023-02-02T09:12:03;100759.78;;;4.40;100.00
5574;BME280;2563;52.242;7.956;2023-02-02T09:14:29;100764.06;;;4.46;100.00
5574;BME280;2563;52.242;7.956;2023-02-02T09:16:54;100766.66;;;4.54;100.00
5574;BME280;2563;52.242;7.956;2023-02-02T09:19:20;100771.75;;;4.54;100.00
5574;BME280;2563;52.242;7.956;2023-02-02T09:21:47;100775.16;;;4.56;100.00
5574;BME280;2563;52.242;7.956;2023-02-02T09:24:13;100777.72;;;4.53;100.00
5574;BME280;2563;52.242;7.956;2023-02-02T09:26:39;100782.81;;;4.59;100.00
5574;BME280;2563;52.242;7.956;2023-02-02T09:29:06;100781.97;;;4.60;100.00
5574;BME280;2563;52.242;7.956;2023-02-02T09:31:34;100782.00;;;4.63;100.00
5574;BME280;2563;52.242;7.956;2023-02-02T09:34:01;100782.00;;;4.63;100.00
5574;BME280;2563;52.242;7.956;2023-02-02T09:36:27;100784.53;;;4.64;100.00
5574;BME280;2563;52.242;7.956;2023-02-02T09:38:53;100791.34;;;4.70;100.00
5574;BME280;2563;52.242;7.956;2023-02-02T09:52:13;100797.31;;;4.78;100.00
5574;BME280;2563;52.242;7.956;2023-02-02T09:54:42;100805.00;;;4.84;100.00
5574;BME280;2563;52.242;7.956;2023-02-02T09:57:22;100814.34;;;4.82;100.00
5574;BME280;2563;52.242;7.956;2023-02-02T09:59:51;100811.84;;;4.88;100.00
5574;BME280;2563;52.242;7.956;2023-02-02T10:02:25;100716.59;;;4.93;100.00
5574;BME280;2563;52.242;7.956;2023-02-02T10:04:54;100724.25;;;4.93;100.00
5574;BME280;2563;52.242;7.956;2023-02-02T10:07:26;100722.56;;;4.99;100.00
5574;BME280;2563;52.242;7.956;2023-02-02T10:10:02;100737.03;;;5.02;100.00
5574;BME280;2563;52.242;7.956;2023-02-02T10:12:41;100737.88;;;5.01;100.00
5574;BME280;2563;52.242;7.956;2023-02-02T10:15:22;100737.88;;;5.01;100.00
5574;BME280;2563;52.242;7.956;2023-02-02T10:18:20;100737.03;;;5.05;100.00
5574;BME280;2563;52.242;7.956;2023-02-02T10:20:56;100743.00;;;5.10;100.00
5574;BME280;2563;52.242;7.956;2023-02-02T10:23:28;100748.09;;;5.07;100.00
5574;BME280;2563;52.242;7.956;2023-02-02T10:25:59;100755.75;;;5.07;100.00
5574;BME280;2563;52.242;7.956;2023-02-02T10:28:59;100754.91;;;5.14;100.00
5574;BME280;2563;52.242;7.956;2023-02-02T10:44:46;100781.25;;;5.07;100.00
5574;BME280;2563;52.242;7.956;2023-02-02T10:47:22;100778.72;;;5.08;100.00
5574;BME280;2563;52.242;7.956;2023-02-02T10:49:54;100784.66;;;5.09;100.00
5574;BME280;2563;52.242;7.956;2023-02-02T10:52:30;100785.53;;;5.17;100.00
5574;BME280;2563;52.242;7.956;2023-02-02T10:54:57;100782.16;;;5.20;100.00
5574;BME280;2563;52.242;7.956;2023-02-02T11:00:22;100771.09;;;5.30;100.00
5574;BME280;2563;52.242;7.956;2023-02-02T11:02:50;100768.53;;;5.33;100.00
5574;BME280;2563;52.242;7.956;2023-02-02T11:05:20;100766.84;;;5.43;100.00
5574;BME280;2563;52.242;7.956;2023-02-02T11:10:37;100763.44;;;5.38;100.00
5574;BME280;2563;52.242;7.956;2023-02-02T11:13:05;100769.38;;;5.38;100.00
5574;BME280;2563;52.242;7.956;2023-02-02T11:15:31;100772.78;;;5.36;100.00
5574;BME280;2563;52.242;7.956;2023-02-02T11:18:12;100771.09;;;5.38;100.00
5574;BME280;2563;52.242;7.956;2023-02-02T11:20:39;100777.88;;;5.43;100.00
5574;BME280;2563;52.242;7.956;2023-02-02T11:23:05;100760.03;;;5.54;100.00
5574;BME280;2563;52.242;7.956;2023-02-02T11:25:36;100748.09;;;5.62;100.00
5574;BME280;2563;52.242;7.956;2023-02-02T11:28:17;100752.34;;;5.69;100.00
5574;BME280;2563;52.242;7.956;2023-02-02T11:30:48;100745.53;;;5.81;100.00
5574;BME280;2563;52.242;7.956;2023-02-02T11:33:33;100759.19;;;5.73;100.00
5574;BME280;2563;52.242;7.956;2023-02-02T11:36:04;100754.91;;;5.69;100.00
5574;BME280;2563;52.242;7.956;2023-02-02T11:38:30;100765.16;;;5.68;100.00
5574;BME280;2563;52.242;7.956;2023-02-02T11:41:06;100763.44;;;5.71;100.00
5574;BME280;2563;52.242;7.956;2023-02-02T11:46:26;100771.09;;;5.73;100.00
5574;BME280;2563;52.242;7.956;2023-02-02T11:51:26;100786.41;;;5.62;100.00
5574;BME280;2563;52.242;7.956;2023-02-02T11:54:05;100783.00;;;5.66;100.00
5574;BME280;2563;52.242;7.956;2023-02-02T11:56:34;100785.56;;;5.69;100.00
5574;BME280;2563;52.242;7.956;2023-02-02T11:59:01;100770.25;;;5.77;100.00
5574;BME280;2563;52.242;7.956;2023-02-02T12:01:32;100770.25;;;5.80;100.00
5574;BME280;2563;52.242;7.956;2023-02-02T12:04:00;100783.88;;;5.78;100.00
5574;BME280;2563;52.242;7.956;2023-02-02T12:06:34;100778.75;;;5.79;100.00
5574;BME280;2563;52.242;7.956;2023-02-02T12:09:01;100775.34;;;5.85;100.00
5574;BME280;2563;52.242;7.956;2023-02-02T12:27:39;100781.31;;;5.70;100.00
5574;BME280;2563;52.242;7.956;2023-02-02T12:30:16;100788.97;;;5.68;100.00
5574;BME280;2563;52.242;7.956;2023-02-02T12:38:24;100777.91;;;5.77;100.00
5574;BME280;2563;52.242;7.956;2023-02-02T12:43:46;100789.00;;;5.70;100.00
5574;BME280;2563;52.242;7.956;2023-02-02T13:02:39;100782.16;;;5.80;100.00
5574;BME280;2563;52.242;7.956;2023-02-02T13:07:48;100788.13;;;5.72;100.00
5574;BME280;2563;52.242;7.956;2023-02-02T13:10:33;100790.66;;;5.69;100.00
5574;BME280;2563;52.242;7.956;2023-02-02T13:13:05;100788.13;;;5.72;100.00
5574;BME280;2563;52.242;7.956;2023-02-02T13:15:36;100794.09;;;5.73;100.00
5574;BME280;2563;52.242;7.956;2023-02-02T13:18:09;100804.28;;;5.68;100.00
5574;BME280;2563;52.242;7.956;2023-02-02T13:21:10;100808.53;;;5.69;100.00
5574;BME280;2563;52.242;7.956;2023-02-02T13:23:36;100803.44;;;5.69;100.00
5574;BME280;2563;52.242;7.956;2023-02-02T13:26:13;100808.56;;;5.68;100.00
5574;BME280;2563;52.242;7.956;2023-02-02T13:28:54;100797.50;;;5.61;100.00
5574;BME280;2563;52.242;7.956;2023-02-02T13:31:26;100801.72;;;5.53;100.00
5574;BME280;2563;52.242;7.956;2023-02-02T13:34:13;100807.72;;;5.58;100.00
5574;BME280;2563;52.242;7.956;2023-02-02T13:36:43;100811.09;;;5.57;100.00
5574;BME280;2563;52.242;7.956;2023-02-02T13:39:27;100808.53;;;5.57;100.00
5574;BME280;2563;52.242;7.956;2023-02-02T13:41:57;100807.72;;;5.58;100.00
5574;BME280;2563;52.242;7.956;2023-02-02T13:44:30;100809.41;;;5.61;100.00
5574;BME280;2563;52.242;7.956;2023-02-02T13:47:10;100810.25;;;5.64;100.00
5574;BME280;2563;52.242;7.956;2023-02-02T13:49:43;100810.25;;;5.64;100.00
5574;BME280;2563;52.242;7.956;2023-02-02T14:01:00;100816.19;;;5.57;100.00
5574;BME280;2563;52.242;7.956;2023-02-02T14:08:32;100843.44;;;5.37;100.00
5574;BME280;2563;52.242;7.956;2023-02-02T14:11:01;100840.00;;;5.41;100.00
5574;BME280;2563;52.242;7.956;2023-02-02T14:13:41;100842.56;;;5.38;100.00
5574;BME280;2563;52.242;7.956;2023-02-02T14:18:55;100843.41;;;5.33;100.00
5574;BME280;2563;52.242;7.956;2023-02-02T14:23:57;100846.78;;;5.31;100.00
5574;BME280;2563;52.242;7.956;2023-02-02T14:26:44;100851.06;;;5.30;100.00
5574;BME280;2563;52.242;7.956;2023-02-02T14:45:30;100864.66;;;5.31;100.00
5574;BME280;2563;52.242;7.956;2023-02-02T14:48:01;100861.28;;;5.32;100.00
5574;BME280;2563;52.242;7.956;2023-02-02T14:58:22;100858.72;;;5.30;100.00
5574;BME280;2563;52.242;7.956;2023-02-02T15:00:55;100853.59;;;5.29;100.00
5574;BME280;2563;52.242;7.956;2023-02-02T15:06:40;100863.81;;;5.27;100.00
5574;BME280;2563;52.242;7.956;2023-02-02T15:19:53;100880.78;;;5.19;100.00
5574;BME280;2563;52.242;7.956;2023-02-02T15:23:04;100872.31;;;5.20;100.00
5574;BME280;2563;52.242;7.956;2023-02-02T15:25:43;100868.91;;;5.21;100.00
5574;BME280;2563;52.242;7.956;2023-02-02T15:28:23;100862.09;;;5.17;100.00
5574;BME280;2563;52.242;7.956;2023-02-02T15:30:53;100865.50;;;5.18;100.00
5574;BME280;2563;52.242;7.956;2023-02-02T15:35:58;100865.47;;;5.16;100.00
5574;BME280;2563;52.242;7.956;2023-02-02T15:38:33;100878.25;;;5.16;100.00
5574;BME280;2563;52.242;7.956;2023-02-02T15:43:37;100877.38;;;5.11;100.00
5574;BME280;2563;52.242;7.956;2023-02-02T15:46:08;100882.47;;;5.08;100.00
5574;BME280;2563;52.242;7.956;2023-02-02T15:48:35;100877.38;;;5.08;100.00
5574;BME280;2563;52.242;7.956;2023-02-02T15:51:06;100874.81;;;5.06;100.00
5574;BME280;2563;52.242;7.956;2023-02-02T15:56:27;100885.00;;;5.03;100.00
5574;BME280;2563;52.242;7.956;2023-02-02T15:58:56;100885.00;;;5.05;100.00
5574;BME280;2563;52.242;7.956;2023-02-02T16:01:23;100884.16;;;5.03;100.00
5574;BME280;2563;52.242;7.956;2023-02-02T16:06:28;100898.59;;;5.02;100.00
5574;BME280;2563;52.242;7.956;2023-02-02T16:08:54;100895.19;;;5.02;100.00
5574;BME280;2563;52.242;7.956;2023-02-02T16:11:21;100892.66;;;5.05;100.00
5574;BME280;2563;52.242;7.956;2023-02-02T16:16:30;100893.53;;;5.05;100.00